Weather at Bragança Airport

Public forecast

Using degrees Celsius for public forecast. Weather courtesy of forecast.io.

Closest aviation weather report (METAR) to Bragança Airport

Closest report is Leon Airport, 64.1 nm (118.8 km) NE. Retrieved 2021/05/12 04:30 UTC (7 minutes ago):

LELN 120430Z AUTO 22008KT 190V250 9999 OVC004 06/06 Q1013

Closest aviation forecast (TAF) to Bragança Airport

Closest forecast is Leon Airport, 64.1 nm (118.8 km) NE. Retrieved 2021-05-12 03:27 UTC (1 hour ago):

TAF LELN 120200Z 1203/1303 20014KT 9999 SCT015 BKN032 TX15/1215Z TN06/1205Z PROB30 TEMPO 1203/1210 RA BKN012 BECMG 1209/1211 27016KT PROB40 TEMPO 1209/1219 28018G28KT